sensor_id;sensor_type;location;lat;lon;timestamp;P1;durP1;ratioP1;P2;durP2;ratioP2
9547;SDS011;4812;51.992;8.648;2022-11-23T00:01:33;14.60;;;13.60;;
9547;SDS011;4812;51.992;8.648;2022-11-23T00:04:02;15.07;;;13.97;;
9547;SDS011;4812;51.992;8.648;2022-11-23T00:06:30;14.30;;;13.50;;
9547;SDS011;4812;51.992;8.648;2022-11-23T00:08:58;14.77;;;13.83;;
9547;SDS011;4812;51.992;8.648;2022-11-23T00:11:26;14.67;;;13.77;;
9547;SDS011;4812;51.992;8.648;2022-11-23T00:13:55;15.23;;;14.23;;
9547;SDS011;4812;51.992;8.648;2022-11-23T00:16:23;15.10;;;14.10;;
9547;SDS011;4812;51.992;8.648;2022-11-23T00:18:52;15.83;;;14.57;;
9547;SDS011;4812;51.992;8.648;2022-11-23T00:21:20;16.07;;;15.07;;
9547;SDS011;4812;51.992;8.648;2022-11-23T00:23:48;15.13;;;14.10;;
9547;SDS011;4812;51.992;8.648;2022-11-23T00:26:16;14.70;;;13.70;;
9547;SDS011;4812;51.992;8.648;2022-11-23T00:28:44;13.67;;;12.87;;
9547;SDS011;4812;51.992;8.648;2022-11-23T00:31:14;14.57;;;13.77;;
9547;SDS011;4812;51.992;8.648;2022-11-23T00:33:46;14.67;;;13.77;;
9547;SDS011;4812;51.992;8.648;2022-11-23T00:36:15;15.20;;;14.20;;
9547;SDS011;4812;51.992;8.648;2022-11-23T00:38:42;14.80;;;13.90;;
9547;SDS011;4812;51.992;8.648;2022-11-23T00:41:11;14.80;;;13.90;;
9547;SDS011;4812;51.992;8.648;2022-11-23T00:43:40;14.73;;;13.83;;
9547;SDS011;4812;51.992;8.648;2022-11-23T00:46:09;15.20;;;14.23;;
9547;SDS011;4812;51.992;8.648;2022-11-23T00:48:41;15.50;;;14.50;;
9547;SDS011;4812;51.992;8.648;2022-11-23T00:51:10;15.87;;;14.70;;
9547;SDS011;4812;51.992;8.648;2022-11-23T00:53:38;15.90;;;14.80;;
9547;SDS011;4812;51.992;8.648;2022-11-23T00:56:06;15.90;;;14.80;;
9547;SDS011;4812;51.992;8.648;2022-11-23T00:58:33;15.23;;;14.23;;
9547;SDS011;4812;51.992;8.648;2022-11-23T01:01:04;15.37;;;13.97;;
9547;SDS011;4812;51.992;8.648;2022-11-23T01:03:33;14.83;;;13.93;;
9547;SDS011;4812;51.992;8.648;2022-11-23T01:06:04;14.60;;;13.70;;
9547;SDS011;4812;51.992;8.648;2022-11-23T01:08:33;15.70;;;14.50;;
9547;SDS011;4812;51.992;8.648;2022-11-23T01:11:01;14.80;;;13.80;;
9547;SDS011;4812;51.992;8.648;2022-11-23T01:13:33;14.53;;;13.37;;
9547;SDS011;4812;51.992;8.648;2022-11-23T01:16:01;14.20;;;13.10;;
9547;SDS011;4812;51.992;8.648;2022-11-23T01:18:28;14.30;;;13.40;;
9547;SDS011;4812;51.992;8.648;2022-11-23T01:20:56;15.20;;;13.77;;
9547;SDS011;4812;51.992;8.648;2022-11-23T01:23:25;15.07;;;13.77;;
9547;SDS011;4812;51.992;8.648;2022-11-23T01:25:54;14.33;;;13.30;;
9547;SDS011;4812;51.992;8.648;2022-11-23T01:28:22;14.00;;;13.10;;
9547;SDS011;4812;51.992;8.648;2022-11-23T01:30:49;14.07;;;13.07;;
9547;SDS011;4812;51.992;8.648;2022-11-23T01:33:17;14.53;;;13.43;;
9547;SDS011;4812;51.992;8.648;2022-11-23T01:35:45;14.10;;;13.17;;
9547;SDS011;4812;51.992;8.648;2022-11-23T01:38:13;13.63;;;12.53;;
9547;SDS011;4812;51.992;8.648;2022-11-23T01:40:45;13.30;;;12.40;;
9547;SDS011;4812;51.992;8.648;2022-11-23T01:43:13;14.00;;;13.00;;
9547;SDS011;4812;51.992;8.648;2022-11-23T01:45:41;13.83;;;12.93;;
9547;SDS011;4812;51.992;8.648;2022-11-23T01:48:12;13.37;;;12.47;;
9547;SDS011;4812;51.992;8.648;2022-11-23T01:50:42;15.30;;;14.43;;
9547;SDS011;4812;51.992;8.648;2022-11-23T01:53:11;16.53;;;15.33;;
9547;SDS011;4812;51.992;8.648;2022-11-23T01:55:38;16.67;;;15.33;;
9547;SDS011;4812;51.992;8.648;2022-11-23T01:58:07;15.90;;;14.70;;
9547;SDS011;4812;51.992;8.648;2022-11-23T02:00:36;16.43;;;15.37;;
9547;SDS011;4812;51.992;8.648;2022-11-23T02:03:04;15.90;;;14.90;;
9547;SDS011;4812;51.992;8.648;2022-11-23T02:05:34;16.07;;;14.87;;
9547;SDS011;4812;51.992;8.648;2022-11-23T02:08:04;16.33;;;15.23;;
9547;SDS011;4812;51.992;8.648;2022-11-23T02:10:35;16.50;;;15.30;;
9547;SDS011;4812;51.992;8.648;2022-11-23T02:13:03;16.03;;;14.80;;
9547;SDS011;4812;51.992;8.648;2022-11-23T02:15:35;15.93;;;14.83;;
9547;SDS011;4812;51.992;8.648;2022-11-23T02:18:07;16.53;;;15.10;;
9547;SDS011;4812;51.992;8.648;2022-11-23T02:20:37;15.93;;;14.77;;
9547;SDS011;4812;51.992;8.648;2022-11-23T02:23:09;15.63;;;14.60;;
9547;SDS011;4812;51.992;8.648;2022-11-23T02:25:50;15.97;;;14.77;;
9547;SDS011;4812;51.992;8.648;2022-11-23T02:28:22;15.97;;;14.63;;
9547;SDS011;4812;51.992;8.648;2022-11-23T02:30:52;16.30;;;15.10;;
9547;SDS011;4812;51.992;8.648;2022-11-23T02:33:22;16.00;;;14.90;;
9547;SDS011;4812;51.992;8.648;2022-11-23T02:35:51;15.40;;;14.40;;
9547;SDS011;4812;51.992;8.648;2022-11-23T02:38:21;16.10;;;14.90;;
9547;SDS011;4812;51.992;8.648;2022-11-23T02:40:50;14.57;;;13.67;;
9547;SDS011;4812;51.992;8.648;2022-11-23T02:43:20;14.60;;;13.70;;
9547;SDS011;4812;51.992;8.648;2022-11-23T02:45:48;14.47;;;13.43;;
9547;SDS011;4812;51.992;8.648;2022-11-23T02:48:17;13.97;;;13.17;;
9547;SDS011;4812;51.992;8.648;2022-11-23T02:50:45;14.00;;;13.00;;
9547;SDS011;4812;51.992;8.648;2022-11-23T02:53:13;14.30;;;13.30;;
9547;SDS011;4812;51.992;8.648;2022-11-23T02:55:41;14.07;;;13.07;;
9547;SDS011;4812;51.992;8.648;2022-11-23T02:58:10;13.90;;;13.00;;
9547;SDS011;4812;51.992;8.648;2022-11-23T03:00:37;13.50;;;12.60;;
9547;SDS011;4812;51.992;8.648;2022-11-23T03:03:05;13.80;;;12.77;;
9547;SDS011;4812;51.992;8.648;2022-11-23T03:05:33;13.37;;;12.30;;
9547;SDS011;4812;51.992;8.648;2022-11-23T03:08:03;12.97;;;12.27;;
9547;SDS011;4812;51.992;8.648;2022-11-23T03:10:32;13.50;;;12.50;;
9547;SDS011;4812;51.992;8.648;2022-11-23T03:13:00;13.73;;;12.77;;
9547;SDS011;4812;51.992;8.648;2022-11-23T03:18:03;13.67;;;12.80;;
9547;SDS011;4812;51.992;8.648;2022-11-23T03:20:31;13.57;;;12.63;;
9547;SDS011;4812;51.992;8.648;2022-11-23T03:22:58;13.50;;;12.70;;
9547;SDS011;4812;51.992;8.648;2022-11-23T03:25:26;13.50;;;12.50;;
9547;SDS011;4812;51.992;8.648;2022-11-23T03:27:55;13.30;;;12.30;;
9547;SDS011;4812;51.992;8.648;2022-11-23T03:30:22;13.57;;;12.67;;
9547;SDS011;4812;51.992;8.648;2022-11-23T03:32:53;13.90;;;12.50;;
9547;SDS011;4812;51.992;8.648;2022-11-23T03:35:22;13.87;;;12.70;;
9547;SDS011;4812;51.992;8.648;2022-11-23T03:38:18;13.47;;;12.47;;
9547;SDS011;4812;51.992;8.648;2022-11-23T03:40:46;13.33;;;12.33;;
9547;SDS011;4812;51.992;8.648;2022-11-23T03:43:19;13.67;;;12.77;;
9547;SDS011;4812;51.992;8.648;2022-11-23T03:45:47;13.80;;;12.90;;
9547;SDS011;4812;51.992;8.648;2022-11-23T03:48:16;13.50;;;12.70;;
9547;SDS011;4812;51.992;8.648;2022-11-23T03:50:44;14.93;;;13.90;;
9547;SDS011;4812;51.992;8.648;2022-11-23T03:53:13;14.77;;;13.87;;
9547;SDS011;4812;51.992;8.648;2022-11-23T03:55:41;14.63;;;13.63;;
9547;SDS011;4812;51.992;8.648;2022-11-23T03:58:08;15.77;;;14.67;;
9547;SDS011;4812;51.992;8.648;2022-11-23T04:00:36;16.10;;;14.90;;
9547;SDS011;4812;51.992;8.648;2022-11-23T04:03:04;16.03;;;14.73;;
9547;SDS011;4812;51.992;8.648;2022-11-23T04:05:51;15.93;;;14.83;;
9547;SDS011;4812;51.992;8.648;2022-11-23T04:08:41;16.20;;;15.10;;
9547;SDS011;4812;51.992;8.648;2022-11-23T04:11:15;16.10;;;14.90;;
9547;SDS011;4812;51.992;8.648;2022-11-23T04:13:46;15.67;;;14.57;;
9547;SDS011;4812;51.992;8.648;2022-11-23T04:16:14;15.20;;;14.20;;
9547;SDS011;4812;51.992;8.648;2022-11-23T04:18:41;15.07;;;13.97;;
9547;SDS011;4812;51.992;8.648;2022-11-23T04:21:10;14.87;;;13.87;;
9547;SDS011;4812;51.992;8.648;2022-11-23T04:23:38;14.90;;;13.67;;
9547;SDS011;4812;51.992;8.648;2022-11-23T04:26:08;14.23;;;13.23;;
9547;SDS011;4812;51.992;8.648;2022-11-23T04:28:40;15.03;;;13.80;;
9547;SDS011;4812;51.992;8.648;2022-11-23T04:31:09;14.83;;;13.70;;
9547;SDS011;4812;51.992;8.648;2022-11-23T04:33:47;14.10;;;13.10;;
9547;SDS011;4812;51.992;8.648;2022-11-23T04:36:18;14.43;;;13.43;;
9547;SDS011;4812;51.992;8.648;2022-11-23T04:38:46;14.73;;;13.77;;
9547;SDS011;4812;51.992;8.648;2022-11-23T04:41:17;14.77;;;13.77;;
9547;SDS011;4812;51.992;8.648;2022-11-23T04:43:46;14.70;;;13.60;;
9547;SDS011;4812;51.992;8.648;2022-11-23T04:46:13;14.10;;;13.20;;
9547;SDS011;4812;51.992;8.648;2022-11-23T04:48:43;14.63;;;13.63;;
9547;SDS011;4812;51.992;8.648;2022-11-23T04:51:13;14.77;;;13.77;;
9547;SDS011;4812;51.992;8.648;2022-11-23T04:53:42;15.10;;;13.90;;
9547;SDS011;4812;51.992;8.648;2022-11-23T04:56:11;14.43;;;13.33;;
9547;SDS011;4812;51.992;8.648;2022-11-23T04:58:40;14.30;;;13.30;;
9547;SDS011;4812;51.992;8.648;2022-11-23T05:01:08;14.27;;;13.27;;
9547;SDS011;4812;51.992;8.648;2022-11-23T05:03:51;13.83;;;13.03;;
9547;SDS011;4812;51.992;8.648;2022-11-23T05:06:19;14.57;;;13.47;;
9547;SDS011;4812;51.992;8.648;2022-11-23T05:08:48;14.60;;;13.50;;
9547;SDS011;4812;51.992;8.648;2022-11-23T05:11:27;13.40;;;12.60;;
9547;SDS011;4812;51.992;8.648;2022-11-23T05:13:57;13.70;;;12.80;;
9547;SDS011;4812;51.992;8.648;2022-11-23T05:16:26;14.63;;;13.63;;
9547;SDS011;4812;51.992;8.648;2022-11-23T05:18:53;14.20;;;13.40;;
9547;SDS011;4812;51.992;8.648;2022-11-23T05:21:22;14.50;;;13.57;;
9547;SDS011;4812;51.992;8.648;2022-11-23T05:23:51;15.30;;;14.20;;
9547;SDS011;4812;51.992;8.648;2022-11-23T05:26:19;14.30;;;13.33;;
9547;SDS011;4812;51.992;8.648;2022-11-23T05:28:47;14.63;;;13.40;;
9547;SDS011;4812;51.992;8.648;2022-11-23T05:31:14;14.83;;;13.67;;
9547;SDS011;4812;51.992;8.648;2022-11-23T05:33:44;14.43;;;13.43;;
9547;SDS011;4812;51.992;8.648;2022-11-23T05:36:13;14.53;;;13.63;;
9547;SDS011;4812;51.992;8.648;2022-11-23T05:38:41;15.57;;;14.23;;
9547;SDS011;4812;51.992;8.648;2022-11-23T05:41:20;14.97;;;13.87;;
9547;SDS011;4812;51.992;8.648;2022-11-23T05:43:52;14.93;;;13.87;;
9547;SDS011;4812;51.992;8.648;2022-11-23T05:46:24;14.73;;;13.83;;
9547;SDS011;4812;51.992;8.648;2022-11-23T05:48:51;15.87;;;14.60;;
9547;SDS011;4812;51.992;8.648;2022-11-23T05:51:19;15.97;;;14.73;;
9547;SDS011;4812;51.992;8.648;2022-11-23T05:53:48;15.47;;;14.40;;
9547;SDS011;4812;51.992;8.648;2022-11-23T05:56:28;15.23;;;14.17;;
9547;SDS011;4812;51.992;8.648;2022-11-23T05:59:13;14.77;;;13.80;;
9547;SDS011;4812;51.992;8.648;2022-11-23T06:01:44;15.07;;;13.90;;
9547;SDS011;4812;51.992;8.648;2022-11-23T06:04:20;15.73;;;14.43;;
9547;SDS011;4812;51.992;8.648;2022-11-23T06:06:48;16.00;;;14.60;;
9547;SDS011;4812;51.992;8.648;2022-11-23T06:09:16;14.77;;;13.83;;
9547;SDS011;4812;51.992;8.648;2022-11-23T06:11:46;15.30;;;14.10;;
9547;SDS011;4812;51.992;8.648;2022-11-23T06:14:17;15.97;;;14.77;;
9547;SDS011;4812;51.992;8.648;2022-11-23T06:16:46;15.77;;;14.60;;
9547;SDS011;4812;51.992;8.648;2022-11-23T06:19:39;14.67;;;13.67;;
9547;SDS011;4812;51.992;8.648;2022-11-23T06:22:07;14.73;;;13.47;;
9547;SDS011;4812;51.992;8.648;2022-11-23T06:24:41;15.00;;;13.50;;
9547;SDS011;4812;51.992;8.648;2022-11-23T06:27:37;13.53;;;12.53;;
9547;SDS011;4812;51.992;8.648;2022-11-23T06:30:14;13.80;;;12.80;;
9547;SDS011;4812;51.992;8.648;2022-11-23T06:32:42;13.03;;;12.13;;
9547;SDS011;4812;51.992;8.648;2022-11-23T06:35:09;13.90;;;12.97;;
9547;SDS011;4812;51.992;8.648;2022-11-23T06:37:39;14.50;;;13.50;;
9547;SDS011;4812;51.992;8.648;2022-11-23T06:40:07;14.83;;;13.60;;
9547;SDS011;4812;51.992;8.648;2022-11-23T06:42:37;13.83;;;12.93;;
9547;SDS011;4812;51.992;8.648;2022-11-23T06:45:19;15.10;;;13.93;;
9547;SDS011;4812;51.992;8.648;2022-11-23T06:47:52;15.20;;;13.90;;
9547;SDS011;4812;51.992;8.648;2022-11-23T06:50:20;14.57;;;13.40;;
9547;SDS011;4812;51.992;8.648;2022-11-23T06:52:52;14.30;;;13.30;;
9547;SDS011;4812;51.992;8.648;2022-11-23T06:55:27;13.60;;;12.60;;
9547;SDS011;4812;51.992;8.648;2022-11-23T06:57:56;14.20;;;13.23;;
9547;SDS011;4812;51.992;8.648;2022-11-23T07:00:24;14.40;;;13.30;;
9547;SDS011;4812;51.992;8.648;2022-11-23T07:02:52;15.17;;;13.73;;
9547;SDS011;4812;51.992;8.648;2022-11-23T07:05:22;14.17;;;13.27;;
9547;SDS011;4812;51.992;8.648;2022-11-23T07:07:50;14.00;;;13.00;;
9547;SDS011;4812;51.992;8.648;2022-11-23T07:10:24;14.03;;;13.13;;
9547;SDS011;4812;51.992;8.648;2022-11-23T07:13:02;13.90;;;12.90;;
9547;SDS011;4812;51.992;8.648;2022-11-23T07:15:31;14.57;;;13.57;;
9547;SDS011;4812;51.992;8.648;2022-11-23T07:17:59;15.37;;;14.17;;
9547;SDS011;4812;51.992;8.648;2022-11-23T07:20:27;14.73;;;13.63;;
9547;SDS011;4812;51.992;8.648;2022-11-23T07:22:58;14.77;;;13.63;;
9547;SDS011;4812;51.992;8.648;2022-11-23T07:25:27;14.70;;;13.60;;
9547;SDS011;4812;51.992;8.648;2022-11-23T07:27:59;14.50;;;13.60;;
9547;SDS011;4812;51.992;8.648;2022-11-23T07:30:29;14.03;;;13.03;;
9547;SDS011;4812;51.992;8.648;2022-11-23T07:32:58;14.13;;;13.00;;
9547;SDS011;4812;51.992;8.648;2022-11-23T07:35:26;14.10;;;13.20;;
9547;SDS011;4812;51.992;8.648;2022-11-23T07:37:54;14.47;;;13.37;;
9547;SDS011;4812;51.992;8.648;2022-11-23T07:40:21;15.13;;;13.67;;
9547;SDS011;4812;51.992;8.648;2022-11-23T07:42:49;14.30;;;13.40;;
9547;SDS011;4812;51.992;8.648;2022-11-23T07:45:16;14.53;;;13.33;;
9547;SDS011;4812;51.992;8.648;2022-11-23T07:47:57;15.57;;;14.37;;
9547;SDS011;4812;51.992;8.648;2022-11-23T07:50:25;15.67;;;14.43;;
9547;SDS011;4812;51.992;8.648;2022-11-23T07:52:53;14.73;;;13.63;;
9547;SDS011;4812;51.992;8.648;2022-11-23T07:55:21;15.30;;;14.03;;
9547;SDS011;4812;51.992;8.648;2022-11-23T07:57:50;15.83;;;14.43;;
9547;SDS011;4812;51.992;8.648;2022-11-23T08:00:18;15.63;;;14.20;;
9547;SDS011;4812;51.992;8.648;2022-11-23T08:02:47;15.60;;;14.43;;
9547;SDS011;4812;51.992;8.648;2022-11-23T08:05:35;14.90;;;13.70;;
9547;SDS011;4812;51.992;8.648;2022-11-23T08:08:03;17.97;;;16.20;;
9547;SDS011;4812;51.992;8.648;2022-11-23T08:10:31;17.10;;;15.43;;
9547;SDS011;4812;51.992;8.648;2022-11-23T08:12:59;15.80;;;14.80;;
9547;SDS011;4812;51.992;8.648;2022-11-23T08:15:27;16.30;;;15.07;;
9547;SDS011;4812;51.992;8.648;2022-11-23T08:17:55;17.67;;;16.17;;
9547;SDS011;4812;51.992;8.648;2022-11-23T08:20:23;15.73;;;14.73;;
9547;SDS011;4812;51.992;8.648;2022-11-23T08:22:52;16.50;;;15.30;;
9547;SDS011;4812;51.992;8.648;2022-11-23T08:25:21;16.80;;;15.47;;
9547;SDS011;4812;51.992;8.648;2022-11-23T08:27:52;16.80;;;15.50;;
9547;SDS011;4812;51.992;8.648;2022-11-23T08:30:20;17.83;;;16.37;;
9547;SDS011;4812;51.992;8.648;2022-11-23T08:32:48;17.17;;;15.87;;
9547;SDS011;4812;51.992;8.648;2022-11-23T08:35:15;16.97;;;15.63;;
9547;SDS011;4812;51.992;8.648;2022-11-23T08:37:43;17.47;;;15.97;;
9547;SDS011;4812;51.992;8.648;2022-11-23T08:40:13;17.77;;;15.43;;
9547;SDS011;4812;51.992;8.648;2022-11-23T08:42:46;16.40;;;14.93;;
9547;SDS011;4812;51.992;8.648;2022-11-23T08:45:13;15.77;;;14.63;;
9547;SDS011;4812;51.992;8.648;2022-11-23T08:47:41;15.60;;;14.47;;
9547;SDS011;4812;51.992;8.648;2022-11-23T08:50:09;15.90;;;14.30;;
9547;SDS011;4812;51.992;8.648;2022-11-23T08:52:37;14.80;;;13.80;;
9547;SDS011;4812;51.992;8.648;2022-11-23T08:55:04;16.00;;;14.60;;
9547;SDS011;4812;51.992;8.648;2022-11-23T08:57:34;15.53;;;14.43;;
9547;SDS011;4812;51.992;8.648;2022-11-23T09:00:02;15.30;;;14.03;;
9547;SDS011;4812;51.992;8.648;2022-11-23T09:02:30;14.87;;;13.83;;
9547;SDS011;4812;51.992;8.648;2022-11-23T09:04:58;15.90;;;14.70;;
9547;SDS011;4812;51.992;8.648;2022-11-23T09:07:25;15.57;;;14.43;;
9547;SDS011;4812;51.992;8.648;2022-11-23T09:09:53;16.90;;;15.37;;
9547;SDS011;4812;51.992;8.648;2022-11-23T09:12:20;16.30;;;15.20;;
9547;SDS011;4812;51.992;8.648;2022-11-23T09:14:49;16.50;;;15.20;;
9547;SDS011;4812;51.992;8.648;2022-11-23T09:17:17;16.13;;;14.73;;
9547;SDS011;4812;51.992;8.648;2022-11-23T09:19:44;16.07;;;14.83;;
9547;SDS011;4812;51.992;8.648;2022-11-23T09:22:11;15.90;;;14.60;;
9547;SDS011;4812;51.992;8.648;2022-11-23T09:24:39;15.83;;;14.53;;
9547;SDS011;4812;51.992;8.648;2022-11-23T09:27:06;16.23;;;14.90;;
9547;SDS011;4812;51.992;8.648;2022-11-23T09:29:34;15.80;;;14.53;;
9547;SDS011;4812;51.992;8.648;2022-11-23T09:32:03;15.87;;;14.50;;
9547;SDS011;4812;51.992;8.648;2022-11-23T09:34:31;16.17;;;14.87;;
9547;SDS011;4812;51.992;8.648;2022-11-23T09:36:59;15.90;;;14.80;;
9547;SDS011;4812;51.992;8.648;2022-11-23T09:39:26;16.27;;;14.97;;
9547;SDS011;4812;51.992;8.648;2022-11-23T09:41:58;16.40;;;15.00;;
9547;SDS011;4812;51.992;8.648;2022-11-23T09:44:53;16.33;;;14.93;;
9547;SDS011;4812;51.992;8.648;2022-11-23T09:47:44;16.90;;;15.40;;
9547;SDS011;4812;51.992;8.648;2022-11-23T09:50:23;16.07;;;14.97;;
9547;SDS011;4812;51.992;8.648;2022-11-23T09:52:54;15.90;;;14.77;;
9547;SDS011;4812;51.992;8.648;2022-11-23T09:55:23;16.67;;;15.20;;
9547;SDS011;4812;51.992;8.648;2022-11-23T09:58:00;17.20;;;15.83;;
9547;SDS011;4812;51.992;8.648;2022-11-23T10:00:34;17.37;;;15.90;;
9547;SDS011;4812;51.992;8.648;2022-11-23T10:03:05;17.00;;;15.80;;
9547;SDS011;4812;51.992;8.648;2022-11-23T10:05:36;17.23;;;15.93;;
9547;SDS011;4812;51.992;8.648;2022-11-23T10:32:48;18.30;;;16.70;;
9547;SDS011;4812;51.992;8.648;2022-11-23T10:35:19;18.13;;;16.73;;
9547;SDS011;4812;51.992;8.648;2022-11-23T10:37:49;18.43;;;16.83;;
9547;SDS011;4812;51.992;8.648;2022-11-23T10:40:21;18.53;;;17.00;;
9547;SDS011;4812;51.992;8.648;2022-11-23T10:42:53;18.23;;;16.93;;
9547;SDS011;4812;51.992;8.648;2022-11-23T10:45:24;18.80;;;17.30;;
9547;SDS011;4812;51.992;8.648;2022-11-23T10:47:54;19.10;;;17.30;;
9547;SDS011;4812;51.992;8.648;2022-11-23T10:50:25;20.00;;;18.00;;
9547;SDS011;4812;51.992;8.648;2022-11-23T10:52:55;19.30;;;17.60;;
9547;SDS011;4812;51.992;8.648;2022-11-23T10:55:25;20.30;;;18.50;;
9547;SDS011;4812;51.992;8.648;2022-11-23T10:57:54;20.13;;;18.40;;
9547;SDS011;4812;51.992;8.648;2022-11-23T11:00:23;20.17;;;18.50;;
9547;SDS011;4812;51.992;8.648;2022-11-23T11:02:57;20.70;;;19.07;;
9547;SDS011;4812;51.992;8.648;2022-11-23T11:05:27;20.63;;;18.83;;
9547;SDS011;4812;51.992;8.648;2022-11-23T11:08:17;21.07;;;19.33;;
9547;SDS011;4812;51.992;8.648;2022-11-23T11:10:45;21.30;;;19.33;;
9547;SDS011;4812;51.992;8.648;2022-11-23T11:13:19;21.03;;;19.23;;
9547;SDS011;4812;51.992;8.648;2022-11-23T11:15:51;21.30;;;19.60;;
9547;SDS011;4812;51.992;8.648;2022-11-23T11:18:22;21.67;;;19.60;;
9547;SDS011;4812;51.992;8.648;2022-11-23T11:20:55;21.00;;;19.20;;
9547;SDS011;4812;51.992;8.648;2022-11-23T11:23:23;21.60;;;19.60;;
9547;SDS011;4812;51.992;8.648;2022-11-23T11:26:01;21.50;;;19.60;;
9547;SDS011;4812;51.992;8.648;2022-11-23T11:28:35;20.77;;;19.07;;
9547;SDS011;4812;51.992;8.648;2022-11-23T11:34:07;22.50;;;20.40;;
9547;SDS011;4812;51.992;8.648;2022-11-23T11:36:42;23.07;;;20.80;;
9547;SDS011;4812;51.992;8.648;2022-11-23T11:39:13;23.23;;;21.17;;
9547;SDS011;4812;51.992;8.648;2022-11-23T11:41:45;22.97;;;21.03;;
9547;SDS011;4812;51.992;8.648;2022-11-23T11:44:15;23.60;;;21.30;;
9547;SDS011;4812;51.992;8.648;2022-11-23T11:46:46;22.27;;;20.47;;
9547;SDS011;4812;51.992;8.648;2022-11-23T11:49:20;23.70;;;21.60;;
9547;SDS011;4812;51.992;8.648;2022-11-23T11:51:50;22.57;;;20.67;;
9547;SDS011;4812;51.992;8.648;2022-11-23T11:54:21;22.93;;;21.03;;
9547;SDS011;4812;51.992;8.648;2022-11-23T11:56:53;23.33;;;21.03;;
9547;SDS011;4812;51.992;8.648;2022-11-23T11:59:24;22.93;;;20.93;;
9547;SDS011;4812;51.992;8.648;2022-11-23T12:01:55;22.90;;;21.10;;
9547;SDS011;4812;51.992;8.648;2022-11-23T12:04:26;22.83;;;20.93;;
9547;SDS011;4812;51.992;8.648;2022-11-23T12:06:59;23.33;;;21.30;;
9547;SDS011;4812;51.992;8.648;2022-11-23T12:09:31;24.07;;;21.80;;
9547;SDS011;4812;51.992;8.648;2022-11-23T12:12:01;22.27;;;20.33;;
9547;SDS011;4812;51.992;8.648;2022-11-23T12:14:30;22.17;;;20.00;;
9547;SDS011;4812;51.992;8.648;2022-11-23T12:16:59;21.80;;;19.83;;
9547;SDS011;4812;51.992;8.648;2022-11-23T12:19:53;21.80;;;19.90;;
9547;SDS011;4812;51.992;8.648;2022-11-23T12:22:27;24.00;;;21.33;;
9547;SDS011;4812;51.992;8.648;2022-11-23T12:25:07;22.47;;;20.43;;
9547;SDS011;4812;51.992;8.648;2022-11-23T12:27:42;22.53;;;20.27;;
9547;SDS011;4812;51.992;8.648;2022-11-23T12:30:16;22.90;;;20.80;;
9547;SDS011;4812;51.992;8.648;2022-11-23T12:33:04;22.40;;;20.50;;
9547;SDS011;4812;51.992;8.648;2022-11-23T12:38:36;22.97;;;20.87;;
9547;SDS011;4812;51.992;8.648;2022-11-23T12:41:10;22.47;;;20.77;;
9547;SDS011;4812;51.992;8.648;2022-11-23T12:43:58;22.77;;;20.67;;
9547;SDS011;4812;51.992;8.648;2022-11-23T12:46:43;22.40;;;20.43;;
9547;SDS011;4812;51.992;8.648;2022-11-23T12:49:18;22.53;;;20.53;;
9547;SDS011;4812;51.992;8.648;2022-11-23T12:51:53;23.23;;;21.40;;
9547;SDS011;4812;51.992;8.648;2022-11-23T12:54:32;22.47;;;20.10;;
9547;SDS011;4812;51.992;8.648;2022-11-23T12:57:09;23.10;;;21.03;;
9547;SDS011;4812;51.992;8.648;2022-11-23T12:59:45;22.90;;;20.77;;
9547;SDS011;4812;51.992;8.648;2022-11-23T13:02:35;23.10;;;21.00;;
9547;SDS011;4812;51.992;8.648;2022-11-23T13:05:38;23.60;;;21.40;;
9547;SDS011;4812;51.992;8.648;2022-11-23T13:08:28;22.17;;;20.37;;
9547;SDS011;4812;51.992;8.648;2022-11-23T13:11:06;23.60;;;21.13;;
9547;SDS011;4812;51.992;8.648;2022-11-23T13:13:52;23.23;;;21.13;;
9547;SDS011;4812;51.992;8.648;2022-11-23T13:19:24;23.37;;;21.30;;
9547;SDS011;4812;51.992;8.648;2022-11-23T13:21:58;22.90;;;20.90;;
9547;SDS011;4812;51.992;8.648;2022-11-23T13:24:28;22.57;;;20.77;;
9547;SDS011;4812;51.992;8.648;2022-11-23T13:30:06;22.83;;;20.77;;
9547;SDS011;4812;51.992;8.648;2022-11-23T13:32:41;21.00;;;19.30;;
9547;SDS011;4812;51.992;8.648;2022-11-23T13:38:39;21.53;;;19.70;;
9547;SDS011;4812;51.992;8.648;2022-11-23T13:44:18;21.40;;;19.23;;
9547;SDS011;4812;51.992;8.648;2022-11-23T13:46:54;22.07;;;19.77;;
9547;SDS011;4812;51.992;8.648;2022-11-23T13:49:28;22.33;;;20.23;;
9547;SDS011;4812;51.992;8.648;2022-11-23T13:52:04;20.83;;;18.83;;
9547;SDS011;4812;51.992;8.648;2022-11-23T13:54:33;21.47;;;19.73;;
9547;SDS011;4812;51.992;8.648;2022-11-23T13:57:01;22.07;;;20.13;;
9547;SDS011;4812;51.992;8.648;2022-11-23T13:59:32;22.03;;;20.13;;
9547;SDS011;4812;51.992;8.648;2022-11-23T14:04:49;22.03;;;19.80;;
9547;SDS011;4812;51.992;8.648;2022-11-23T14:07:18;21.70;;;19.90;;
9547;SDS011;4812;51.992;8.648;2022-11-23T14:09:49;21.70;;;19.63;;
9547;SDS011;4812;51.992;8.648;2022-11-23T14:12:20;21.73;;;19.63;;
9547;SDS011;4812;51.992;8.648;2022-11-23T14:14:57;22.83;;;20.73;;
9547;SDS011;4812;51.992;8.648;2022-11-23T14:17:41;21.83;;;19.87;;
9547;SDS011;4812;51.992;8.648;2022-11-23T14:20:41;22.40;;;20.30;;
9547;SDS011;4812;51.992;8.648;2022-11-23T14:23:30;22.00;;;20.03;;
9547;SDS011;4812;51.992;8.648;2022-11-23T14:26:24;21.83;;;19.83;;
9547;SDS011;4812;51.992;8.648;2022-11-23T14:29:04;21.47;;;19.57;;
9547;SDS011;4812;51.992;8.648;2022-11-23T14:34:56;22.27;;;20.30;;
9547;SDS011;4812;51.992;8.648;2022-11-23T14:37:38;21.43;;;19.17;;
9547;SDS011;4812;51.992;8.648;2022-11-23T14:40:11;21.83;;;19.67;;
9547;SDS011;4812;51.992;8.648;2022-11-23T14:42:44;20.97;;;19.37;;
9547;SDS011;4812;51.992;8.648;2022-11-23T14:45:16;21.33;;;19.53;;
9547;SDS011;4812;51.992;8.648;2022-11-23T14:47:46;21.67;;;19.73;;
9547;SDS011;4812;51.992;8.648;2022-11-23T14:50:21;21.93;;;19.70;;
9547;SDS011;4812;51.992;8.648;2022-11-23T14:52:50;21.37;;;19.47;;
9547;SDS011;4812;51.992;8.648;2022-11-23T14:55:20;21.27;;;19.20;;
9547;SDS011;4812;51.992;8.648;2022-11-23T14:57:49;22.60;;;20.37;;
9547;SDS011;4812;51.992;8.648;2022-11-23T15:00:24;21.77;;;19.77;;
9547;SDS011;4812;51.992;8.648;2022-11-23T15:02:57;20.67;;;18.90;;
9547;SDS011;4812;51.992;8.648;2022-11-23T15:05:46;20.07;;;18.40;;
9547;SDS011;4812;51.992;8.648;2022-11-23T15:08:16;21.20;;;19.13;;
9547;SDS011;4812;51.992;8.648;2022-11-23T15:10:47;21.27;;;19.23;;
9547;SDS011;4812;51.992;8.648;2022-11-23T15:13:19;21.50;;;19.40;;
9547;SDS011;4812;51.992;8.648;2022-11-23T15:15:48;20.60;;;18.87;;
9547;SDS011;4812;51.992;8.648;2022-11-23T15:18:30;21.93;;;19.93;;
9547;SDS011;4812;51.992;8.648;2022-11-23T15:20:58;20.70;;;18.80;;
9547;SDS011;4812;51.992;8.648;2022-11-23T15:23:28;20.50;;;18.70;;
9547;SDS011;4812;51.992;8.648;2022-11-23T15:26:01;19.57;;;18.07;;
9547;SDS011;4812;51.992;8.648;2022-11-23T15:28:30;20.53;;;18.53;;
9547;SDS011;4812;51.992;8.648;2022-11-23T15:31:00;20.77;;;18.83;;
9547;SDS011;4812;51.992;8.648;2022-11-23T15:33:29;20.27;;;18.47;;
9547;SDS011;4812;51.992;8.648;2022-11-23T15:35:56;20.97;;;19.17;;
9547;SDS011;4812;51.992;8.648;2022-11-23T15:38:24;19.17;;;17.50;;
9547;SDS011;4812;51.992;8.648;2022-11-23T15:40:51;19.37;;;17.87;;
9547;SDS011;4812;51.992;8.648;2022-11-23T15:43:19;21.00;;;19.20;;
9547;SDS011;4812;51.992;8.648;2022-11-23T15:46:00;20.53;;;18.40;;
9547;SDS011;4812;51.992;8.648;2022-11-23T15:48:31;18.57;;;17.07;;
9547;SDS011;4812;51.992;8.648;2022-11-23T15:51:00;18.13;;;16.60;;
9547;SDS011;4812;51.992;8.648;2022-11-23T15:53:29;19.63;;;18.13;;
9547;SDS011;4812;51.992;8.648;2022-11-23T15:55:58;18.30;;;16.80;;
9547;SDS011;4812;51.992;8.648;2022-11-23T15:58:27;18.90;;;17.40;;
9547;SDS011;4812;51.992;8.648;2022-11-23T16:00:55;19.90;;;17.80;;
9547;SDS011;4812;51.992;8.648;2022-11-23T16:03:34;18.77;;;17.23;;
9547;SDS011;4812;51.992;8.648;2022-11-23T16:06:22;19.77;;;17.87;;